createdAt,value
2023-03-12T00:01:19.220Z,100928.97
2023-03-12T00:03:46.510Z,100917.53
2023-03-12T00:06:13.695Z,100894.56
2023-03-12T00:08:40.838Z,100908.09
2023-03-12T00:11:12.654Z,100937.25
2023-03-12T00:13:40.591Z,100909.44
2023-03-12T00:16:12.771Z,100823.88
2023-03-12T00:18:39.435Z,100900.38
2023-03-12T00:21:06.765Z,100834.75
2023-03-12T00:23:33.605Z,100869.16
2023-03-12T00:26:08.677Z,100886.00
2023-03-12T00:28:35.667Z,100864.22
2023-03-12T00:31:19.732Z,100900.00
2023-03-12T00:33:46.802Z,100857.34
2023-03-12T00:36:13.298Z,100867.22
2023-03-12T00:38:40.712Z,100859.78
2023-03-12T00:41:07.138Z,100790.63
2023-03-12T00:43:33.711Z,100774.00
2023-03-12T00:46:00.286Z,100800.25
2023-03-12T00:48:26.806Z,100766.59
2023-03-12T00:50:53.317Z,100779.22
2023-03-12T00:53:19.984Z,100754.28
2023-03-12T00:55:46.484Z,100792.53
2023-03-12T00:58:13.025Z,100818.69
2023-03-12T01:00:40.002Z,100824.06
2023-03-12T01:03:06.501Z,100810.47
2023-03-12T01:05:35.169Z,100802.38
2023-03-12T01:08:01.760Z,100810.66
2023-03-12T01:10:28.325Z,100724.25
2023-03-12T01:12:54.822Z,100830.72
2023-03-12T01:15:21.818Z,100806.16
2023-03-12T01:17:48.547Z,100764.28
2023-03-12T01:20:15.584Z,100734.94
2023-03-12T01:22:42.344Z,100800.06
2023-03-12T01:25:09.115Z,100800.25
2023-03-12T01:27:35.665Z,100747.53
2023-03-12T01:30:04.010Z,100790.63
2023-03-12T01:32:30.537Z,100764.78
2023-03-12T01:34:58.618Z,100794.94
2023-03-12T01:37:25.080Z,100760.22
2023-03-12T01:39:51.711Z,100816.56
2023-03-12T01:42:18.443Z,100740.00
2023-03-12T01:44:59.734Z,100787.88
2023-03-12T01:47:27.683Z,100775.47
2023-03-12T01:49:55.832Z,100697.59
2023-03-12T01:52:30.663Z,100654.31
2023-03-12T01:55:11.728Z,100697.50
2023-03-12T01:57:43.167Z,100765.50
2023-03-12T02:00:16.485Z,100714.28
2023-03-12T02:02:44.696Z,100727.38
2023-03-12T02:05:29.090Z,100728.44
2023-03-12T02:07:55.799Z,100748.09
2023-03-12T02:10:23.823Z,100741.13
2023-03-12T02:12:51.134Z,100743.69
2023-03-12T02:15:17.902Z,100733.25
2023-03-12T02:17:44.414Z,100720.97
2023-03-12T02:20:16.814Z,100703.72
2023-03-12T02:22:49.495Z,100711.63
2023-03-12T02:25:21.944Z,100699.66
2023-03-12T02:27:48.649Z,100689.50
2023-03-12T02:30:17.177Z,100678.50
2023-03-12T02:32:45.278Z,100666.75
2023-03-12T02:35:14.293Z,100658.69
2023-03-12T02:37:48.821Z,100648.09
2023-03-12T02:40:26.374Z,100654.50
2023-03-12T02:42:53.209Z,100640.16
2023-03-12T02:45:20.266Z,100636.47
2023-03-12T02:47:46.933Z,100643.56
2023-03-12T02:50:13.446Z,100614.81
2023-03-12T02:52:39.940Z,100640.50
2023-03-12T02:55:07.070Z,100626.81
2023-03-12T02:57:33.859Z,100616.31
2023-03-12T03:00:00.412Z,100606.84
2023-03-12T03:02:26.883Z,100611.50
2023-03-12T03:04:53.421Z,100602.97
2023-03-12T03:07:19.873Z,100585.06
2023-03-12T03:09:46.383Z,100575.41
2023-03-12T03:12:12.791Z,100576.53
2023-03-12T03:14:39.256Z,100578.00
2023-03-12T03:17:05.964Z,100580.88
2023-03-12T03:19:32.501Z,100548.19
2023-03-12T03:21:58.995Z,100504.00
2023-03-12T03:24:25.547Z,100532.38
2023-03-12T03:26:52.008Z,100507.09
2023-03-12T03:29:18.508Z,100518.69
2023-03-12T03:31:45.005Z,100480.03
2023-03-12T03:34:11.864Z,100466.81
2023-03-12T03:36:38.666Z,100440.25
2023-03-12T03:39:05.092Z,100430.75
2023-03-12T03:41:32.155Z,100388.06
2023-03-12T03:43:59.401Z,100348.47
2023-03-12T03:46:26.444Z,100267.66
2023-03-12T03:48:53.003Z,100228.91
2023-03-12T03:51:19.499Z,100174.19
2023-03-12T03:53:46.044Z,100150.97
2023-03-12T03:56:15.182Z,100062.06
2023-03-12T03:58:42.191Z,100064.22
2023-03-12T04:01:09.208Z,100000.09
2023-03-12T04:03:35.936Z,99942.63
2023-03-12T04:06:04.969Z,99948.47
2023-03-12T04:08:32.292Z,99852.25
2023-03-12T04:10:58.852Z,99810.44
2023-03-12T04:13:25.369Z,99780.38
2023-03-12T04:15:53.505Z,99715.91
2023-03-12T04:18:20.619Z,99648.72
2023-03-12T04:20:47.132Z,99593.56
2023-03-12T04:23:13.617Z,99471.72
2023-03-12T04:25:40.058Z,99425.63
2023-03-12T04:28:06.853Z,99338.69
2023-03-12T04:30:34.129Z,99282.44
2023-03-12T04:33:00.710Z,99221.81
2023-03-12T04:35:27.179Z,99146.19
2023-03-12T04:37:53.741Z,99098.06
2023-03-12T04:40:20.381Z,99025.59
2023-03-12T04:42:48.054Z,98920.22
2023-03-12T04:45:15.178Z,98845.84
2023-03-12T04:47:41.875Z,98754.19
2023-03-12T04:50:09.154Z,98657.16
2023-03-12T04:52:35.890Z,98584.28
2023-03-12T04:55:02.326Z,98488.28
2023-03-12T04:57:28.771Z,98399.56
2023-03-12T04:59:55.456Z,98323.78
2023-03-12T05:02:21.947Z,98238.81
2023-03-12T05:04:48.476Z,98152.66
2023-03-12T05:07:15.079Z,98058.13
2023-03-12T05:09:42.103Z,97999.03
2023-03-12T05:12:08.693Z,97932.66
2023-03-12T05:14:35.143Z,97858.03
2023-03-12T05:17:01.712Z,97789.56
2023-03-12T05:19:28.181Z,97701.28
2023-03-12T05:21:54.654Z,97678.22
2023-03-12T05:24:21.308Z,97632.66
2023-03-12T05:26:47.782Z,97595.38
2023-03-12T05:29:14.438Z,97548.75
2023-03-12T05:31:41.203Z,97519.97
2023-03-12T05:34:07.802Z,97484.50
2023-03-12T05:36:34.367Z,97461.44
2023-03-12T05:39:00.976Z,97424.22
2023-03-12T05:41:29.705Z,97419.44
2023-03-12T05:43:57.123Z,97437.00
2023-03-12T05:46:25.550Z,97433.34
2023-03-12T05:48:52.443Z,97404.72
2023-03-12T05:51:19.358Z,97394.19
2023-03-12T05:53:46.572Z,97378.44
2023-03-12T05:56:18.469Z,97393.16
2023-03-12T05:58:47.327Z,97344.56
2023-03-12T06:01:18.079Z,97283.28
2023-03-12T06:03:45.412Z,97245.25
2023-03-12T06:06:13.233Z,97242.66
2023-03-12T06:08:40.645Z,97202.00
2023-03-12T06:11:07.516Z,97165.97
2023-03-12T06:13:34.513Z,97097.78
2023-03-12T06:16:07.060Z,97038.78
2023-03-12T06:18:35.224Z,96979.88
2023-03-12T06:21:13.415Z,96927.53
2023-03-12T06:23:40.696Z,96870.25
2023-03-12T06:26:07.798Z,96791.53
2023-03-12T06:28:35.315Z,96681.00
2023-03-12T06:31:02.175Z,96563.47
2023-03-12T06:33:28.760Z,96429.94
2023-03-12T06:35:56.241Z,96289.44
2023-03-12T06:38:23.200Z,96217.09
2023-03-12T06:41:04.605Z,96108.22
2023-03-12T06:43:32.532Z,96009.63
2023-03-12T06:46:00.565Z,95832.34
2023-03-12T06:48:29.023Z,95774.56
2023-03-12T06:50:55.641Z,95646.78
2023-03-12T06:53:23.461Z,95571.25
2023-03-12T06:55:51.075Z,95427.59
2023-03-12T06:58:18.510Z,95307.50
2023-03-12T07:00:45.343Z,95169.31
2023-03-12T07:03:11.886Z,95056.91
2023-03-12T07:05:38.355Z,94901.22
2023-03-12T07:08:05.462Z,94737.91
2023-03-12T07:10:32.022Z,94647.53
2023-03-12T07:12:58.567Z,94548.22
2023-03-12T07:15:25.103Z,94421.34
2023-03-12T07:17:51.760Z,94283.88
2023-03-12T07:20:18.567Z,94189.16
2023-03-12T07:22:45.078Z,94118.56
2023-03-12T07:25:12.229Z,94063.09
2023-03-12T07:27:38.831Z,94011.00
2023-03-12T07:30:05.939Z,93911.13
2023-03-12T07:32:32.512Z,93856.81
2023-03-12T07:34:59.093Z,93723.84
2023-03-12T07:37:25.653Z,93610.56
2023-03-12T07:39:52.159Z,93514.31
2023-03-12T07:42:18.957Z,93454.50
2023-03-12T07:44:45.962Z,93292.38
2023-03-12T07:47:23.200Z,93100.38
2023-03-12T07:49:50.442Z,92885.72
2023-03-12T07:52:17.003Z,92602.25
2023-03-12T07:54:43.721Z,92352.78
2023-03-12T07:57:10.303Z,92237.22
2023-03-12T07:59:36.867Z,92106.63
2023-03-12T08:02:03.652Z,92257.84
2023-03-12T08:04:30.436Z,92128.91
2023-03-12T08:06:57.050Z,91859.72
2023-03-12T08:09:23.561Z,91519.50
2023-03-12T08:11:52.408Z,91484.25
2023-03-12T08:14:18.919Z,91384.69
2023-03-12T08:16:45.539Z,91289.00
2023-03-12T08:19:12.882Z,91144.63
2023-03-12T08:21:39.285Z,90987.78
2023-03-12T08:24:05.874Z,90784.22
2023-03-12T08:26:32.503Z,90492.16
2023-03-12T08:28:59.045Z,90356.41
2023-03-12T08:31:30.251Z,90251.72
2023-03-12T08:33:56.747Z,90157.41
2023-03-12T08:36:23.513Z,90057.78
2023-03-12T08:38:50.096Z,89966.44
2023-03-12T08:41:16.570Z,89868.09
2023-03-12T08:43:43.092Z,89778.88
2023-03-12T08:46:12.185Z,89709.06
2023-03-12T08:48:39.026Z,89645.50
2023-03-12T08:51:05.874Z,89614.78
2023-03-12T08:53:34.269Z,89519.19
2023-03-12T08:56:01.992Z,89489.22
2023-03-12T08:58:28.902Z,89505.88
2023-03-12T09:00:56.474Z,89378.69
2023-03-12T09:03:24.626Z,89423.06
2023-03-12T09:06:01.761Z,89373.88
2023-03-12T09:08:28.415Z,89378.59
2023-03-12T09:10:54.882Z,89374.88
2023-03-12T09:13:21.435Z,89345.19
2023-03-12T09:15:47.931Z,89378.25
2023-03-12T09:18:14.493Z,89334.94
2023-03-12T09:20:43.033Z,89248.97
2023-03-12T09:23:09.741Z,89250.63
2023-03-12T09:25:36.267Z,89266.88
2023-03-12T09:28:02.790Z,89281.97
2023-03-12T09:30:29.432Z,89313.78
2023-03-12T09:32:56.062Z,89286.44
2023-03-12T09:35:22.536Z,89199.97
2023-03-12T09:37:49.941Z,89203.00
2023-03-12T09:40:20.422Z,89333.63
2023-03-12T09:42:53.462Z,89418.69
2023-03-12T09:45:26.391Z,89374.59
2023-03-12T09:47:59.912Z,89480.59
2023-03-12T09:50:30.478Z,89578.75
2023-03-12T09:52:56.924Z,89614.31
2023-03-12T09:55:24.501Z,89627.16
2023-03-12T09:57:52.237Z,89697.13
2023-03-12T10:00:30.280Z,89777.53
2023-03-12T10:03:12.434Z,89834.84
2023-03-12T10:06:10.361Z,89856.41
2023-03-12T10:08:56.010Z,89901.25
2023-03-12T10:11:55.499Z,89986.41
2023-03-12T10:14:34.237Z,89977.53
2023-03-12T10:17:18.686Z,89923.75
2023-03-12T10:20:22.292Z,90008.34
2023-03-12T10:23:03.730Z,90127.00
2023-03-12T10:25:39.505Z,90193.75
2023-03-12T10:28:16.615Z,90220.63
2023-03-12T10:30:50.276Z,90279.84
2023-03-12T10:33:19.257Z,90410.78
2023-03-12T10:35:45.954Z,90355.22
2023-03-12T10:38:19.962Z,90483.03
2023-03-12T10:40:47.544Z,90498.44
2023-03-12T10:43:13.972Z,90408.69
2023-03-12T10:46:10.604Z,90494.41
2023-03-12T10:48:37.142Z,90612.47
2023-03-12T10:51:09.327Z,90717.81
2023-03-12T10:53:43.634Z,90694.00
2023-03-12T10:56:15.894Z,90773.53
2023-03-12T10:58:44.998Z,90902.81
2023-03-12T11:01:17.234Z,90937.09
2023-03-12T11:03:44.816Z,90939.50
2023-03-12T11:06:23.922Z,90959.09
2023-03-12T11:09:16.701Z,90907.94
2023-03-12T11:11:46.129Z,91191.66
2023-03-12T11:14:22.043Z,91371.59
2023-03-12T11:16:49.992Z,91402.09
2023-03-12T11:19:33.069Z,91520.66
2023-03-12T11:22:08.621Z,91607.06
2023-03-12T11:24:36.673Z,91746.47
2023-03-12T11:27:20.404Z,91855.66
2023-03-12T11:29:50.437Z,92077.38
2023-03-12T11:32:28.481Z,92139.16
2023-03-12T11:34:55.581Z,92236.31
2023-03-12T11:37:42.281Z,92454.13
2023-03-12T11:40:39.928Z,92656.88
2023-03-12T11:43:43.153Z,92827.22
2023-03-12T11:46:32.159Z,93040.97
2023-03-12T11:48:58.613Z,93224.25
2023-03-12T11:51:57.555Z,93357.44
2023-03-12T11:54:45.842Z,93570.47
2023-03-12T11:57:15.160Z,93782.00
2023-03-12T11:59:56.873Z,93956.47
2023-03-12T12:02:35.668Z,94174.91
2023-03-12T12:05:08.240Z,94312.44
2023-03-12T12:07:54.951Z,94439.25
2023-03-12T12:10:33.786Z,94623.75
2023-03-12T12:13:12.521Z,94780.38
2023-03-12T12:15:47.052Z,94978.06
2023-03-12T12:18:43.798Z,95193.63
2023-03-12T12:21:16.194Z,95353.16
2023-03-12T12:24:05.100Z,95526.28
2023-03-12T12:26:44.562Z,95657.78
2023-03-12T12:29:28.217Z,95767.00
2023-03-12T12:31:57.542Z,95913.13
2023-03-12T12:35:01.922Z,96100.78
2023-03-12T12:37:34.022Z,96284.16
2023-03-12T12:40:10.650Z,96399.22
2023-03-12T12:42:49.524Z,96505.16
2023-03-12T12:45:16.123Z,96673.66
2023-03-12T12:47:53.011Z,96908.81
2023-03-12T12:50:24.356Z,97160.16
2023-03-12T12:53:04.100Z,97377.34
2023-03-12T12:55:49.561Z,97489.53
2023-03-12T12:58:26.771Z,97609.59
2023-03-12T13:01:00.321Z,97709.16
2023-03-12T13:03:27.829Z,97801.03
2023-03-12T13:05:56.198Z,97911.69
2023-03-12T13:08:31.737Z,98017.41
2023-03-12T13:11:16.297Z,98074.97
2023-03-12T13:13:48.425Z,98189.56
2023-03-12T13:16:33.649Z,98301.81
2023-03-12T13:19:14.329Z,98342.47
2023-03-12T13:21:51.120Z,98395.28
2023-03-12T13:24:26.663Z,98416.97
2023-03-12T13:27:03.918Z,98458.69
2023-03-12T13:29:30.367Z,98450.44
2023-03-12T13:31:57.673Z,98438.44
2023-03-12T13:34:26.174Z,98443.91
2023-03-12T13:36:59.646Z,98527.97
2023-03-12T13:39:36.461Z,98557.22
2023-03-12T13:42:24.877Z,98622.38
2023-03-12T13:44:52.537Z,98695.94
2023-03-12T13:47:30.962Z,98728.72
2023-03-12T13:50:00.562Z,98803.44
2023-03-12T13:52:30.409Z,98856.50
2023-03-12T13:55:21.889Z,98917.47
2023-03-12T13:57:53.293Z,98952.81
2023-03-12T14:00:39.205Z,98974.00
2023-03-12T14:03:26.892Z,98989.06
2023-03-12T14:06:12.353Z,99072.28
2023-03-12T14:08:57.153Z,99101.81
2023-03-12T14:11:56.141Z,99191.59
2023-03-12T14:14:53.889Z,99262.72
2023-03-12T14:17:23.795Z,99345.38
2023-03-12T14:20:04.904Z,99433.53
2023-03-12T14:22:37.984Z,99437.41
2023-03-12T14:25:36.586Z,99464.38
2023-03-12T14:28:10.431Z,99457.53
2023-03-12T14:30:42.828Z,99493.81
2023-03-12T14:33:13.128Z,99513.31
2023-03-12T14:35:47.728Z,99486.75
2023-03-12T14:38:32.780Z,99496.78
2023-03-12T14:41:04.836Z,99476.63
2023-03-12T14:43:33.697Z,99446.34
2023-03-12T14:46:06.661Z,99421.34
2023-03-12T14:48:37.417Z,99424.56
2023-03-12T14:51:05.977Z,99468.34
2023-03-12T14:53:41.881Z,99448.47
2023-03-12T14:56:21.672Z,99428.44
2023-03-12T14:58:49.675Z,99420.19
2023-03-12T15:01:22.576Z,99419.03
2023-03-12T15:04:15.314Z,99346.66
2023-03-12T15:06:47.881Z,99313.22
2023-03-12T15:09:21.046Z,99348.97
2023-03-12T15:11:54.292Z,99322.00
2023-03-12T15:14:22.355Z,99282.91
2023-03-12T15:16:49.404Z,99266.94
2023-03-12T15:19:21.584Z,99310.50
2023-03-12T15:21:48.424Z,99329.69
2023-03-12T15:24:15.081Z,99335.56
2023-03-12T15:26:41.936Z,99334.44
2023-03-12T15:29:14.356Z,99346.94
2023-03-12T15:31:50.269Z,99376.91
2023-03-12T15:34:35.294Z,99338.81
2023-03-12T15:37:04.336Z,99367.88
2023-03-12T15:39:35.595Z,99361.03
2023-03-12T15:42:09.085Z,99360.13
2023-03-12T15:44:48.221Z,99353.31
2023-03-12T15:47:21.438Z,99296.19
2023-03-12T15:49:55.219Z,99330.41
2023-03-12T15:52:21.559Z,99364.22
2023-03-12T15:55:09.797Z,99354.44
2023-03-12T15:57:47.558Z,99333.94
2023-03-12T16:00:31.860Z,99326.16
2023-03-12T16:03:03.292Z,99334.25
2023-03-12T16:05:36.299Z,99330.75
2023-03-12T16:08:21.492Z,99325.28
2023-03-12T16:10:49.892Z,99341.00
2023-03-12T16:13:18.487Z,99329.59
2023-03-12T16:15:47.349Z,99343.38
2023-03-12T16:18:16.604Z,99329.34
2023-03-12T16:20:43.624Z,99321.69
2023-03-12T16:23:10.604Z,99326.38
2023-03-12T16:25:38.149Z,99289.38
2023-03-12T16:28:06.471Z,99294.84
2023-03-12T16:30:36.024Z,99273.06
2023-03-12T16:33:08.650Z,99251.84
2023-03-12T16:35:35.524Z,99251.19
2023-03-12T16:38:03.224Z,99244.75
2023-03-12T16:40:34.274Z,99182.44
2023-03-12T16:43:03.120Z,99216.28
2023-03-12T16:45:31.232Z,99220.69
2023-03-12T16:48:03.448Z,99199.47
2023-03-12T16:50:30.363Z,99186.88
2023-03-12T16:52:57.964Z,99178.25
2023-03-12T16:55:29.843Z,99142.84
2023-03-12T16:58:00.298Z,99151.00
2023-03-12T17:00:29.773Z,99127.28
2023-03-12T17:02:57.698Z,99134.88
2023-03-12T17:05:26.293Z,99112.94
2023-03-12T17:07:53.047Z,99079.50
2023-03-12T17:10:19.949Z,99057.78
2023-03-12T17:12:48.422Z,99055.56
2023-03-12T17:15:21.000Z,99027.56
2023-03-12T17:17:48.570Z,99007.06
2023-03-12T17:20:17.244Z,98997.28
2023-03-12T17:22:43.807Z,98978.75
2023-03-12T17:25:26.848Z,98965.97
2023-03-12T17:27:53.531Z,98943.56
2023-03-12T17:30:20.157Z,98948.09
2023-03-12T17:32:46.682Z,98963.47
2023-03-12T17:35:13.361Z,98953.56
2023-03-12T17:37:39.950Z,98955.63
2023-03-12T17:40:07.187Z,98945.00
2023-03-12T17:42:35.011Z,98949.56
2023-03-12T17:45:02.399Z,98945.66
2023-03-12T17:47:30.866Z,98946.47
2023-03-12T17:49:57.976Z,98948.72
2023-03-12T17:52:24.663Z,98946.97
2023-03-12T17:54:51.280Z,98954.00
2023-03-12T17:57:18.013Z,98952.94
2023-03-12T17:59:44.636Z,98960.75
2023-03-12T18:02:13.247Z,98949.38
2023-03-12T18:04:39.816Z,98959.78
2023-03-12T18:07:06.273Z,98957.44
2023-03-12T18:09:32.842Z,98952.75
2023-03-12T18:11:59.607Z,98968.03
2023-03-12T18:14:26.107Z,98970.56
2023-03-12T18:16:52.678Z,98969.03
2023-03-12T18:19:19.415Z,98961.78
2023-03-12T18:21:45.877Z,98946.53
2023-03-12T18:24:14.495Z,98942.63
2023-03-12T18:26:41.272Z,98933.19
2023-03-12T18:29:07.752Z,98982.44
2023-03-12T18:31:34.234Z,98968.91
2023-03-12T18:34:00.680Z,98976.41
2023-03-12T18:36:27.158Z,98974.13
2023-03-12T18:38:53.703Z,98979.00
2023-03-12T18:41:20.149Z,98963.94
2023-03-12T18:43:46.725Z,98960.47
2023-03-12T18:46:13.250Z,98961.03
2023-03-12T18:48:41.368Z,98955.00
2023-03-12T18:51:08.862Z,98957.28
2023-03-12T18:53:35.317Z,98958.81
2023-03-12T18:56:01.845Z,98956.69
2023-03-12T18:58:28.848Z,98950.66
2023-03-12T19:00:57.441Z,98930.94
2023-03-12T19:03:25.453Z,98923.97
2023-03-12T19:06:07.030Z,98920.06
2023-03-12T19:08:34.210Z,98900.41
2023-03-12T19:11:03.238Z,98918.41
2023-03-12T19:13:29.702Z,98909.56
2023-03-12T19:16:00.705Z,98883.50
2023-03-12T19:18:28.134Z,98879.03
2023-03-12T19:20:55.370Z,98862.00
2023-03-12T19:23:22.410Z,98861.78
2023-03-12T19:25:49.136Z,98848.94
2023-03-12T19:28:15.677Z,98835.56
2023-03-12T19:30:42.215Z,98833.75
2023-03-12T19:33:08.888Z,98817.88
2023-03-12T19:35:39.539Z,98789.53
2023-03-12T19:38:06.044Z,98788.88
2023-03-12T19:40:33.322Z,98756.69
2023-03-12T19:43:00.788Z,98785.06
2023-03-12T19:45:27.430Z,98753.91
2023-03-12T19:47:53.911Z,98768.16
2023-03-12T19:50:20.397Z,98751.28
2023-03-12T19:52:47.772Z,98703.69
2023-03-12T19:55:14.626Z,98729.13
2023-03-12T19:57:41.201Z,98714.19
2023-03-12T20:00:09.006Z,98714.91
2023-03-12T20:02:38.581Z,98696.91
2023-03-12T20:05:06.574Z,98676.19
2023-03-12T20:07:33.095Z,98644.44
2023-03-12T20:09:59.550Z,98623.91
2023-03-12T20:12:26.291Z,98613.97
2023-03-12T20:14:52.756Z,98584.03
2023-03-12T20:17:19.238Z,98569.16
2023-03-12T20:19:45.793Z,98551.66
2023-03-12T20:22:12.378Z,98512.91
2023-03-12T20:24:38.866Z,98505.88
2023-03-12T20:27:05.700Z,98511.34
2023-03-12T20:29:32.256Z,98489.97
2023-03-12T20:31:58.817Z,98470.75
2023-03-12T20:34:25.409Z,98453.28
2023-03-12T20:36:51.928Z,98438.19
2023-03-12T20:39:18.418Z,98426.00
2023-03-12T20:41:44.921Z,98407.25
2023-03-12T20:44:11.422Z,98404.38
2023-03-12T20:46:37.991Z,98401.22
2023-03-12T20:49:04.564Z,98398.13
2023-03-12T20:51:31.050Z,98372.63
2023-03-12T20:53:57.598Z,98360.97
2023-03-12T20:56:24.030Z,98357.31
2023-03-12T20:58:50.500Z,98361.50
2023-03-12T21:01:17.028Z,98326.88
2023-03-12T21:03:43.489Z,98314.69
2023-03-12T21:06:09.972Z,98322.75
2023-03-12T21:08:36.420Z,98306.88
2023-03-12T21:11:06.838Z,98306.41
2023-03-12T21:13:33.469Z,98322.31
2023-03-12T21:15:59.892Z,98282.22
2023-03-12T21:18:26.424Z,98289.56
2023-03-12T21:20:53.103Z,98305.47
2023-03-12T21:23:19.698Z,98304.69
2023-03-12T21:25:46.193Z,98294.31
2023-03-12T21:28:12.982Z,98295.63
2023-03-12T21:30:39.563Z,98302.38
2023-03-12T21:33:06.129Z,98285.41
2023-03-12T21:35:32.682Z,98313.09
2023-03-12T21:37:59.324Z,98297.47
2023-03-12T21:40:25.850Z,98314.69
2023-03-12T21:42:52.439Z,98327.19
2023-03-12T21:45:18.954Z,98335.00
2023-03-12T21:47:45.409Z,98307.66
2023-03-12T21:50:11.973Z,98343.06
2023-03-12T21:52:41.259Z,98348.06
2023-03-12T21:55:09.858Z,98346.50
2023-03-12T21:57:36.321Z,98315.19
2023-03-12T22:00:03.842Z,98359.78
2023-03-12T22:02:30.370Z,98358.00
2023-03-12T22:04:58.999Z,98330.34
2023-03-12T22:07:25.611Z,98374.09
2023-03-12T22:09:52.142Z,98361.88
2023-03-12T22:12:18.672Z,98338.41
2023-03-12T22:14:45.105Z,98350.41
2023-03-12T22:17:11.697Z,98342.06
2023-03-12T22:19:39.919Z,98326.41
2023-03-12T22:22:07.419Z,98315.78
2023-03-12T22:24:33.951Z,98306.13
2023-03-12T22:27:00.449Z,98298.28
2023-03-12T22:29:27.262Z,98300.38
2023-03-12T22:31:53.722Z,98294.91
2023-03-12T22:34:20.148Z,98285.78
2023-03-12T22:36:46.701Z,98291.28
2023-03-12T22:39:13.270Z,98280.34
2023-03-12T22:41:39.706Z,98267.81
2023-03-12T22:44:07.411Z,98261.81
2023-03-12T22:46:34.154Z,98250.38
2023-03-12T22:49:02.953Z,98239.41
2023-03-12T22:51:31.231Z,98226.13
2023-03-12T22:53:57.763Z,98204.00
2023-03-12T22:56:24.748Z,98177.16
2023-03-12T22:58:51.310Z,98136.53
2023-03-12T23:01:20.470Z,98120.63
2023-03-12T23:03:47.697Z,98075.31
2023-03-12T23:06:15.891Z,98046.69
2023-03-12T23:08:42.848Z,98024.31
2023-03-12T23:11:10.642Z,97975.13
2023-03-12T23:13:39.681Z,97952.97
2023-03-12T23:16:15.230Z,97872.06
2023-03-12T23:18:41.764Z,97816.66
2023-03-12T23:21:10.783Z,97785.34
2023-03-12T23:23:37.848Z,97678.59
2023-03-12T23:26:04.410Z,97669.59
2023-03-12T23:28:31.362Z,97544.41
2023-03-12T23:31:03.336Z,97486.88
2023-03-12T23:33:30.610Z,97373.88
2023-03-12T23:36:00.123Z,97272.94
2023-03-12T23:38:28.533Z,97182.72
2023-03-12T23:41:20.048Z,97009.16
2023-03-12T23:43:46.760Z,96859.75
2023-03-12T23:46:14.770Z,96713.88
2023-03-12T23:48:41.497Z,96556.94
2023-03-12T23:51:10.791Z,96337.31
2023-03-12T23:53:39.074Z,96123.34
2023-03-12T23:56:08.653Z,95932.06
2023-03-12T23:58:35.537Z,95670.72
